Time;durP1;ratioP1;P1;durP2;ratioP2;P2;SDS_P1;SDS_P2;PMS_P1;PMS_P2;Temp;Humidity;BMP_temperature;BMP_pressure;BME280_temperature;BME280_humidity;BME280_pressure;Samples;Min_cycle;Max_cycle;Signal;HPM_P1;HPM_P2
2022/06/15 00:02:07;;;;;;;19.80;8.50;;;;;;;15.23;67.91;101059.31;6252387;23;20094;-81
2022/06/15 00:04:36;;;;;;;12.45;8.40;;;;;;;15.20;68.32;101072.84;6251789;23;20020;-82
2022/06/15 00:07:02;;;;;;;13.20;9.32;;;;;;;15.15;68.63;101056.75;6251876;23;20349;-84
2022/06/15 00:09:29;;;;;;;15.07;8.75;;;;;;;15.14;68.72;101063.81;6251528;23;20023;-83
2022/06/15 00:11:56;;;;;;;9.85;8.65;;;;;;;15.08;68.95;101066.38;6254652;23;20024;-83
2022/06/15 00:14:25;;;;;;;15.00;8.55;;;;;;;14.97;69.23;101051.78;6253295;23;20024;-83
2022/06/15 00:16:52;;;;;;;17.13;9.13;;;;;;;14.93;69.41;101056.56;6254656;23;20024;-82
2022/06/15 00:19:19;;;;;;;11.73;8.70;;;;;;;14.88;69.58;101048.34;6254029;23;20040;-82
2022/06/15 00:21:48;;;;;;;12.95;8.63;;;;;;;14.83;69.96;101050.69;6256132;23;20024;-81
2022/06/15 00:24:15;;;;;;;13.98;8.95;;;;;;;14.79;70.20;101046.75;6256863;23;20495;-82
2022/06/15 00:26:42;;;;;;;10.70;8.80;;;;;;;14.82;70.24;101050.88;6257591;23;20024;-83
2022/06/15 00:29:09;;;;;;;10.35;9.07;;;;;;;14.85;69.74;101048.69;6259072;23;20020;-80
2022/06/15 00:31:36;;;;;;;15.50;9.45;;;;;;;14.82;69.94;101051.69;6262114;23;20031;-82
2022/06/15 00:34:03;;;;;;;13.05;10.05;;;;;;;14.77;70.33;101045.28;6256779;23;20024;-82
2022/06/15 00:36:30;;;;;;;12.95;9.63;;;;;;;14.75;70.24;101048.09;6255849;23;20016;-84
2022/06/15 00:39:00;;;;;;;13.90;9.25;;;;;;;14.72;70.24;101045.81;6255165;23;20027;-83
2022/06/15 00:41:30;;;;;;;12.73;9.30;;;;;;;14.71;70.45;101051.25;6256322;23;20024;-84
2022/06/15 00:43:58;;;;;;;11.27;8.57;;;;;;;14.68;70.45;101044.50;6255178;23;20024;-84
2022/06/15 00:46:29;;;;;;;16.70;9.82;;;;;;;14.62;71.16;101037.31;6255746;23;20020;-83
2022/06/15 00:49:01;;;;;;;11.88;8.80;;;;;;;14.57;72.07;101034.38;6256076;23;20024;-83
2022/06/15 00:51:29;;;;;;;15.37;10.13;;;;;;;14.47;72.13;101028.50;6256079;23;20024;-83
2022/06/15 00:53:57;;;;;;;14.23;9.50;;;;;;;14.38;72.44;101034.75;6257289;23;20035;-84
2022/06/15 00:56:27;;;;;;;11.90;10.00;;;;;;;14.28;72.92;101030.50;6257842;23;20043;-83
2022/06/15 00:58:58;;;;;;;14.02;9.77;;;;;;;14.30;72.68;101030.34;6256495;23;20020;-81
2022/06/15 01:01:25;;;;;;;10.73;9.10;;;;;;;14.25;72.73;101020.31;6254777;23;20024;-83
2022/06/15 01:03:53;;;;;;;13.05;10.25;;;;;;;14.26;72.61;101021.13;6254521;23;20020;-83
2022/06/15 01:06:28;;;;;;;15.10;10.07;;;;;;;14.27;72.34;101028.03;6255992;23;20470;-83
2022/06/15 01:09:00;;;;;;;13.77;10.02;;;;;;;14.32;72.29;101024.91;6263968;23;20020;-83
2022/06/15 01:11:40;;;;;;;14.93;9.88;;;;;;;14.30;72.12;101025.06;6272439;22;20039;-84
2022/06/15 01:14:43;;;;;;;12.05;9.50;;;;;;;14.24;72.40;101023.94;6273338;22;20020;-82
2022/06/15 01:17:29;;;;;;;16.42;9.93;;;;;;;14.19;73.26;101021.00;6261334;23;20051;-83
2022/06/15 01:20:17;;;;;;;12.98;9.40;;;;;;;14.13;73.23;101021.69;6255896;23;20024;-83
2022/06/15 01:23:11;;;;;;;12.93;10.00;;;;;;;14.09;73.51;101020.41;6257409;23;20210;-84
2022/06/15 01:25:41;;;;;;;11.88;9.75;;;;;;;14.07;73.46;101021.56;6256142;23;20024;-84
2022/06/15 01:28:40;;;;;;;15.98;10.25;;;;;;;14.04;74.36;101022.72;6256553;23;20031;-84
2022/06/15 01:31:19;;;;;;;13.55;9.43;;;;;;;13.99;74.13;101024.19;6190232;23;20051;-83
2022/06/15 01:34:01;;;;;;;15.73;10.05;;;;;;;13.91;74.09;101022.41;6255930;23;20028;-83
2022/06/15 01:36:34;;;;;;;;;;;;;;;13.82;74.28;101026.03;6255803;23;20017;-84
2022/06/15 01:39:07;;;;;;;12.38;9.80;;;;;;;13.79;74.26;101027.19;6254588;23;19959;-85
2022/06/15 01:41:35;;;;;;;14.70;10.45;;;;;;;13.79;74.33;101029.00;6256367;23;20021;-85
2022/06/15 01:44:13;;;;;;;13.88;10.15;;;;;;;13.75;74.88;101017.16;6253650;23;20024;-85
2022/06/15 01:46:44;;;;;;;13.90;9.73;;;;;;;13.63;75.46;101019.34;6253154;23;20057;-85
2022/06/15 01:49:18;;;;;;;13.57;10.30;;;;;;;13.56;75.73;101023.63;6252554;23;20360;-83
2022/06/15 01:51:45;;;;;;;15.15;10.27;;;;;;;13.56;76.01;101024.44;6253126;23;20031;-83
2022/06/15 01:54:16;;;;;;;15.35;10.45;;;;;;;13.55;75.90;101017.53;6252729;23;20031;-83
2022/06/15 01:56:47;;;;;;;18.88;11.13;;;;;;;13.44;76.56;101015.25;6251979;23;20449;-83
2022/06/15 01:59:18;;;;;;;13.90;11.05;;;;;;;13.42;76.63;101011.97;6252899;23;20020;-80
2022/06/15 02:01:54;;;;;;;14.73;10.63;;;;;;;13.42;77.18;101019.03;6251715;23;20056;-81
2022/06/15 02:04:29;;;;;;;14.35;10.77;;;;;;;13.34;77.21;101025.09;6249197;23;20095;-80
2022/06/15 02:07:10;;;;;;;15.23;10.05;;;;;;;13.20;77.36;101016.09;6249552;23;20024;-79
2022/06/15 02:09:45;;;;;;;16.15;11.50;;;;;;;13.05;77.90;101012.41;6247275;23;20024;-80
2022/06/15 02:12:16;;;;;;;12.77;10.50;;;;;;;12.99;78.46;101014.88;6248312;23;20020;-78
2022/06/15 02:14:47;;;;;;;15.15;11.32;;;;;;;12.95;78.83;101012.56;6252891;23;20024;-82
2022/06/15 02:17:21;;;;;;;14.60;11.10;;;;;;;12.97;78.92;101012.41;6254213;23;20024;-83
2022/06/15 02:19:50;;;;;;;13.63;10.55;;;;;;;12.94;79.03;101013.53;6253385;23;20049;-83
2022/06/15 02:22:24;;;;;;;13.30;10.43;;;;;;;12.96;79.10;101006.31;6253272;23;20024;-84
2022/06/15 02:24:54;;;;;;;15.68;11.32;;;;;;;12.93;78.95;101001.41;6253195;23;20024;-84
2022/06/15 02:27:23;;;;;;;14.40;10.63;;;;;;;12.91;79.64;101002.53;6253078;23;20020;-84
2022/06/15 02:29:53;;;;;;;18.10;11.43;;;;;;;12.88;79.64;101003.69;6252042;23;20028;-84
2022/06/15 02:32:21;;;;;;;15.95;11.40;;;;;;;12.90;79.12;101004.34;6254976;23;20028;-84
2022/06/15 02:34:48;;;;;;;18.60;10.48;;;;;;;12.96;78.81;101000.25;6252862;23;20031;-83
2022/06/15 02:37:14;;;;;;;14.80;10.35;;;;;;;12.90;78.51;101006.97;6253835;23;20020;-84
2022/06/15 02:39:41;;;;;;;12.57;10.98;;;;;;;12.85;78.82;101000.56;6254138;23;20016;-83
2022/06/15 02:42:27;;;;;;;17.73;10.85;;;;;;;12.74;79.71;101000.88;6253656;23;20051;-83
2022/06/15 02:44:57;;;;;;;13.43;10.80;;;;;;;12.67;79.96;100992.81;6253988;23;20059;-85
2022/06/15 02:47:29;;;;;;;14.68;11.38;;;;;;;12.62;80.23;100997.75;6254788;23;20360;-84
2022/06/15 02:49:57;;;;;;;14.32;10.88;;;;;;;12.67;80.00;100992.81;6255058;23;20024;-84
2022/06/15 02:52:29;;;;;;;14.48;11.27;;;;;;;12.68;79.81;101004.97;6254310;23;20020;-84
2022/06/15 02:54:56;;;;;;;17.02;12.20;;;;;;;12.73;79.03;101000.06;6253044;23;20027;-84
2022/06/15 02:57:24;;;;;;;16.70;11.77;;;;;;;12.62;79.19;100993.31;6253703;23;20020;-84
2022/06/15 02:59:51;;;;;;;17.27;11.98;;;;;;;12.58;79.40;101004.28;6252189;23;20031;-84
2022/06/15 03:02:19;;;;;;;17.77;12.43;;;;;;;12.52;80.06;100997.88;6252365;23;20024;-85
2022/06/15 03:04:48;;;;;;;16.27;12.13;;;;;;;12.49;79.76;100990.31;6253280;23;20024;-85
2022/06/15 03:07:16;;;;;;;15.80;12.10;;;;;;;12.51;80.05;100992.78;6254927;23;20079;-85
2022/06/15 03:09:43;;;;;;;13.73;11.57;;;;;;;12.48;79.75;100993.91;6253332;23;20087;-85
2022/06/15 03:12:11;;;;;;;14.27;11.95;;;;;;;12.43;79.82;100983.06;6254274;23;20360;-85
2022/06/15 03:14:38;;;;;;;16.52;12.02;;;;;;;12.43;80.00;100992.75;6252981;23;20046;-85
2022/06/15 03:17:05;;;;;;;17.38;12.57;;;;;;;12.39;80.14;100994.03;6252106;23;20016;-85
2022/06/15 03:19:32;;;;;;;19.38;12.48;;;;;;;12.34;80.22;100989.25;6251425;23;20028;-84
2022/06/15 03:22:00;;;;;;;16.55;11.70;;;;;;;12.39;80.07;100991.41;6252255;23;20027;-85
2022/06/15 03:24:27;;;;;;;15.43;12.32;;;;;;;12.46;79.65;101000.31;6251119;23;20024;-84
2022/06/15 03:26:54;;;;;;;18.80;12.27;;;;;;;12.47;79.80;100988.81;6253230;23;20027;-85
2022/06/15 03:29:21;;;;;;;17.08;11.50;;;;;;;12.45;79.75;100990.78;6251781;23;20028;-84
2022/06/15 03:31:47;;;;;;;14.45;11.80;;;;;;;12.44;79.92;101004.88;6253198;23;20032;-85
2022/06/15 03:34:17;;;;;;;17.15;11.63;;;;;;;12.46;79.89;101009.00;6258839;23;20024;-82
2022/06/15 03:36:43;;;;;;;17.23;12.98;;;;;;;12.46;79.87;101002.94;6256523;23;20016;-85
2022/06/15 03:39:11;;;;;;;18.08;12.07;;;;;;;12.47;79.86;100996.69;6254895;23;20055;-85
2022/06/15 03:41:38;;;;;;;15.88;12.18;;;;;;;12.48;80.16;100995.72;6262405;23;20024;-83
2022/06/15 03:44:05;;;;;;;15.43;12.35;;;;;;;12.51;79.99;100995.41;6259183;23;20024;-83
2022/06/15 03:46:32;;;;;;;17.75;11.95;;;;;;;12.53;79.52;100998.69;6251869;23;20302;-83
2022/06/15 03:49:00;;;;;;;17.13;11.38;;;;;;;12.53;79.66;100998.69;6251826;23;20028;-83
2022/06/15 03:51:27;;;;;;;17.17;11.98;;;;;;;12.53;79.58;101003.94;6250439;23;20477;-82
2022/06/15 03:53:53;;;;;;;17.15;11.77;;;;;;;12.60;79.34;100992.66;6252039;23;20504;-83
2022/06/15 03:56:22;;;;;;;15.40;11.85;;;;;;;12.70;79.11;101004.81;6254683;23;20027;-84
2022/06/15 03:58:48;;;;;;;15.52;11.43;;;;;;;12.74;79.21;100999.09;6255647;23;20028;-84
2022/06/15 04:01:15;;;;;;;13.55;11.55;;;;;;;12.80;78.65;101002.84;6255761;23;20024;-85
2022/06/15 04:03:42;;;;;;;15.80;12.18;;;;;;;13.12;78.33;101015.22;6254887;23;20016;-84
2022/06/15 04:06:08;;;;;;;17.90;11.85;;;;;;;14.19;73.83;101010.47;6252659;23;20039;-83
2022/06/15 04:08:42;;;;;;;14.38;10.52;;;;;;;15.33;69.70;101015.09;6252223;23;20028;-83
2022/06/15 04:11:58;;;;;;;14.23;9.73;;;;;;;16.21;66.19;101015.19;6253462;23;20048;-83
2022/06/15 04:14:01;;;;;;;15.18;9.07;;;;;;;17.17;62.51;101013.22;6253615;23;20556;-83
2022/06/15 04:16:28;;;;;;;15.35;9.50;;;;;;;17.58;60.56;101016.81;6254887;23;20408;-83
2022/06/15 04:18:55;;;;;;;13.90;9.80;;;;;;;18.04;58.84;101012.88;6253640;23;20026;-84
2022/06/15 04:21:21;;;;;;;13.63;8.50;;;;;;;18.09;58.90;101016.56;6253529;23;20031;-83
2022/06/15 04:23:48;;;;;;;12.82;8.27;;;;;;;18.03;58.75;101001.47;6248923;22;20023;-78
2022/06/15 04:26:14;;;;;;;12.10;7.88;;;;;;;18.59;57.48;101025.13;6249114;23;20344;-79
2022/06/15 04:28:43;;;;;;;10.55;8.52;;;;;;;19.05;56.06;101022.63;6248042;23;20047;-77
2022/06/15 04:31:11;;;;;;;10.32;8.52;;;;;;;19.26;55.82;101020.81;6247158;23;20031;-79
2022/06/15 04:33:38;;;;;;;12.20;8.23;;;;;;;19.29;55.34;101018.59;6248098;23;20024;-79
2022/06/15 04:36:06;;;;;;;10.20;8.10;;;;;;;18.78;57.11;101010.34;6248190;23;20039;-81
2022/06/15 04:38:33;;;;;;;10.65;8.13;;;;;;;18.41;58.68;101009.00;6250799;23;20024;-79
2022/06/15 04:41:02;;;;;;;12.75;8.20;;;;;;;18.09;59.19;101015.75;6250076;23;20031;-80
2022/06/15 04:43:29;;;;;;;12.23;8.43;;;;;;;17.78;60.74;101003.78;6250550;23;20024;-80
2022/06/15 04:45:56;;;;;;;14.55;8.90;;;;;;;18.04;60.11;101012.88;6247949;23;20020;-79
2022/06/15 04:48:24;;;;;;;12.43;8.93;;;;;;;18.46;58.30;101015.31;6248244;23;20508;-79
2022/06/15 04:50:51;;;;;;;14.52;8.90;;;;;;;18.45;58.47;101010.19;6246232;23;20066;-78
2022/06/15 04:53:17;;;;;;;9.93;8.10;;;;;;;18.32;58.72;101005.69;6249931;23;20047;-78
2022/06/15 04:55:44;;;;;;;10.95;8.45;;;;;;;18.73;58.14;101018.91;6253289;23;20024;-81
2022/06/15 04:58:12;;;;;;;15.35;8.63;;;;;;;19.19;56.54;101018.97;6260495;23;20361;-79
2022/06/15 05:00:41;;;;;;;13.65;8.85;;;;;;;19.40;55.97;101020.59;6249786;23;20031;-79
2022/06/15 05:03:09;;;;;;;12.20;8.43;;;;;;;19.75;55.02;101025.72;6252262;23;20036;-78
2022/06/15 05:05:37;;;;;;;14.25;8.63;;;;;;;19.64;55.47;101026.34;6249121;23;20012;-78
2022/06/15 05:08:04;;;;;;;15.35;8.98;;;;;;;19.76;55.46;101027.38;6250265;23;20024;-79
2022/06/15 05:10:31;;;;;;;15.65;9.48;;;;;;;19.62;55.60;101034.53;6246385;23;20046;-78
2022/06/15 05:12:58;;;;;;;14.20;8.70;;;;;;;19.55;56.32;101034.53;6246758;23;20021;-80
2022/06/15 05:15:24;;;;;;;12.45;8.73;;;;;;;20.15;55.26;101035.25;6250790;23;20081;-80
2022/06/15 05:17:51;;;;;;;11.15;8.15;;;;;;;20.95;52.57;101034.91;6249813;23;20048;-80
2022/06/15 05:20:18;;;;;;;12.60;8.35;;;;;;;21.29;51.44;101036.31;6251097;23;20024;-82
2022/06/15 05:22:52;;;;;;;12.98;9.43;;;;;;;21.66;49.72;101029.25;6254576;23;20404;-81
2022/06/15 05:25:20;;;;;;;12.65;8.90;;;;;;;22.36;48.82;101032.41;6252308;23;20024;-80
2022/06/15 05:27:47;;;;;;;16.70;9.77;;;;;;;23.09;46.67;101029.59;6251395;23;20020;-80
2022/06/15 05:30:14;;;;;;;11.15;8.38;;;;;;;23.52;46.02;101037.31;6250747;23;20024;-79
2022/06/15 05:32:41;;;;;;;14.95;8.88;;;;;;;23.75;44.84;101028.50;6250637;23;20345;-78
2022/06/15 05:35:09;;;;;;;14.60;8.93;;;;;;;23.21;45.44;101024.28;6249316;23;20047;-79
2022/06/15 05:37:36;;;;;;;10.45;8.43;;;;;;;23.48;45.06;101031.63;6250581;23;20024;-79
2022/06/15 05:40:05;;;;;;;13.82;8.38;;;;;;;24.21;43.30;101029.50;6249695;23;20418;-80
2022/06/15 05:42:31;;;;;;;13.27;8.40;;;;;;;25.43;40.50;101021.84;6252161;23;20123;-80
2022/06/15 05:45:02;;;;;;;10.77;8.35;;;;;;;25.02;41.41;101020.41;6252412;23;20020;-81
2022/06/15 05:47:28;;;;;;;10.73;7.93;;;;;;;24.85;42.22;101031.03;6253631;23;20126;-81
2022/06/15 05:49:55;;;;;;;13.10;7.93;;;;;;;25.17;41.63;101025.16;6252412;23;20058;-81
2022/06/15 05:52:24;;;;;;;11.68;7.65;;;;;;;25.56;40.03;101029.53;6252018;23;20100;-80
2022/06/15 05:54:50;;;;;;;15.75;8.35;;;;;;;25.51;40.52;101018.75;6251871;23;20024;-80
2022/06/15 05:57:20;;;;;;;12.65;8.80;;;;;;;25.39;40.87;101026.06;6249895;23;20016;-79
2022/06/15 05:59:47;;;;;;;12.82;7.80;;;;;;;25.43;40.94;101030.69;6249848;23;20055;-77
2022/06/15 06:02:14;;;;;;;10.80;8.32;;;;;;;25.31;41.50;101034.50;6253549;23;20095;-79
2022/06/15 06:04:41;;;;;;;9.80;7.85;;;;;;;26.08;39.65;101032.69;6250624;23;20050;-78
2022/06/15 06:07:09;;;;;;;12.00;7.72;;;;;;;25.69;41.29;101036.47;6249118;23;20037;-78
2022/06/15 06:09:36;;;;;;;12.50;7.88;;;;;;;26.20;41.97;101031.78;6255839;23;20035;-78
2022/06/15 06:12:04;;;;;;;12.93;8.45;;;;;;;25.95;42.48;101037.63;6264261;23;20020;-78
2022/06/15 06:14:33;;;;;;;11.45;7.65;;;;;;;26.15;42.41;101029.03;6266309;23;20024;-79
2022/06/15 06:17:00;;;;;;;12.98;8.40;;;;;;;25.84;43.14;101019.78;6265288;23;20020;-79
2022/06/15 06:19:26;;;;;;;12.75;8.32;;;;;;;26.37;42.05;101029.88;6259058;23;20425;-80
2022/06/15 06:21:53;;;;;;;15.00;7.80;;;;;;;26.70;40.63;101029.69;6249485;23;20024;-78
2022/06/15 06:24:20;;;;;;;12.50;8.35;;;;;;;26.94;40.37;101029.38;6249871;23;20027;-79
2022/06/15 06:26:47;;;;;;;12.15;7.57;;;;;;;27.45;38.94;101035.97;6252475;23;20024;-81
2022/06/15 06:29:17;;;;;;;15.30;8.18;;;;;;;27.16;39.43;101035.50;6249570;23;20467;-79
2022/06/15 06:31:45;;;;;;;13.57;8.13;;;;;;;27.18;39.21;101021.81;6247802;23;20038;-78
2022/06/15 06:34:11;;;;;;;9.63;7.72;;;;;;;27.32;39.04;101028.38;6248774;23;20020;-79
2022/06/15 06:36:41;;;;;;;11.68;7.22;;;;;;;27.03;38.70;101025.19;6244881;23;20070;-78
2022/06/15 06:39:14;;;;;;;11.02;7.50;;;;;;;26.96;37.56;101024.56;6244252;23;20240;-77
2022/06/15 06:41:41;;;;;;;10.57;7.28;;;;;;;26.82;37.95;101018.00;6246037;23;20072;-79
2022/06/15 06:44:09;;;;;;;10.63;7.13;;;;;;;26.28;38.34;101028.66;6252459;23;20089;-81
2022/06/15 06:46:37;;;;;;;11.07;6.65;;;;;;;27.42;36.98;101031.13;6249726;23;20026;-78
2022/06/15 06:49:06;;;;;;;11.10;5.72;;;;;;;27.93;34.82;101034.97;6252099;23;20024;-79
2022/06/15 06:51:33;;;;;;;12.20;7.53;;;;;;;26.65;37.48;101050.28;6252790;23;20051;-78
2022/06/15 06:54:00;;;;;;;10.73;7.40;;;;;;;27.00;37.31;101036.44;6251155;23;20024;-79
2022/06/15 06:56:26;;;;;;;10.20;7.43;;;;;;;27.02;38.02;101047.72;6249628;23;20050;-79
2022/06/15 06:58:54;;;;;;;10.40;6.95;;;;;;;26.07;37.56;101041.81;6251543;23;20025;-80
2022/06/15 07:01:20;;;;;;;9.32;6.70;;;;;;;27.00;37.17;101033.75;6248380;23;20076;-79
2022/06/15 07:03:48;;;;;;;13.18;7.43;;;;;;;26.40;38.38;101040.09;6247665;23;20031;-79
2022/06/15 07:06:16;;;;;;;14.85;7.93;;;;;;;26.15;39.44;101042.44;6249042;23;20099;-78
2022/06/15 07:08:43;;;;;;;13.45;7.68;;;;;;;26.11;38.86;101045.59;6249422;23;20024;-79
2022/06/15 07:11:10;;;;;;;10.80;7.00;;;;;;;25.86;37.75;101039.94;6248155;23;20024;-79
2022/06/15 07:13:37;;;;;;;10.35;6.30;;;;;;;26.38;38.51;101047.59;6246634;23;20043;-78
2022/06/15 07:16:05;;;;;;;10.38;6.90;;;;;;;26.55;37.81;101042.94;6242234;23;20059;-79
2022/06/15 07:18:32;;;;;;;12.15;6.60;;;;;;;26.55;37.36;101032.19;6247505;23;20052;-79
2022/06/15 07:21:02;;;;;;;9.25;6.82;;;;;;;26.66;36.66;101036.63;6246554;23;20058;-78
2022/06/15 07:23:30;;;;;;;12.90;6.65;;;;;;;27.45;35.32;101041.34;6246907;23;20017;-80
2022/06/15 07:25:57;;;;;;;14.63;7.30;;;;;;;27.23;36.08;101044.16;6247065;23;20044;-80
2022/06/15 07:28:26;;;;;;;11.10;6.53;;;;;;;27.07;36.43;101042.41;6246835;23;20021;-79
2022/06/15 07:30:53;;;;;;;8.95;5.93;;;;;;;27.59;35.34;101039.06;6246954;23;20028;-80
2022/06/15 07:33:20;;;;;;;10.60;6.25;;;;;;;27.13;35.90;101041.38;6247760;23;20024;-80
2022/06/15 07:35:47;;;;;;;14.75;6.50;;;;;;;27.17;36.94;101045.19;6246731;23;20086;-79
2022/06/15 07:38:14;;;;;;;8.38;5.68;;;;;;;27.28;35.23;101044.22;6247655;23;20052;-80
2022/06/15 07:40:42;;;;;;;14.68;6.72;;;;;;;27.66;35.66;101045.84;6247051;23;20020;-79
2022/06/15 07:43:09;;;;;;;14.02;6.90;;;;;;;27.86;34.69;101052.44;6248981;23;20051;-79
2022/06/15 07:45:36;;;;;;;10.35;6.18;;;;;;;28.43;34.70;101038.94;6251049;23;20028;-79
2022/06/15 07:50:47;;;;;;;13.07;5.90;;;;;;;28.76;32.62;101040.41;6247077;23;20100;-80
2022/06/15 07:53:14;;;;;;;11.55;5.90;;;;;;;28.89;33.81;101039.06;6247298;23;20040;-79
2022/06/15 07:55:45;;;;;;;10.57;6.28;;;;;;;28.42;34.60;101031.94;6249735;23;20028;-79
2022/06/15 07:58:13;;;;;;;11.70;6.22;;;;;;;29.14;32.74;101033.72;6247696;23;20078;-78
2022/06/15 08:00:42;;;;;;;11.85;5.90;;;;;;;28.77;33.52;101039.31;6247454;23;20433;-79
2022/06/15 08:03:10;;;;;;;10.95;6.43;;;;;;;29.78;32.17;101049.28;6248116;23;20059;-80
2022/06/15 08:05:41;;;;;;;12.85;6.80;;;;;;;29.37;32.43;101043.13;6245939;23;20082;-78
2022/06/15 08:08:11;;;;;;;8.35;6.35;;;;;;;28.84;33.80;101033.69;6245854;23;20492;-78
2022/06/15 08:10:38;;;;;;;8.18;6.50;;;;;;;29.04;33.83;101042.59;6245029;23;20020;-78
2022/06/15 08:13:07;;;;;;;13.63;6.95;;;;;;;29.42;32.99;101036.94;6246678;23;20335;-78
2022/06/15 08:15:35;;;;;;;12.27;7.60;;;;;;;29.59;33.15;101032.06;6250321;23;20024;-79
2022/06/15 08:18:04;;;;;;;10.85;7.55;;;;;;;28.94;34.72;101025.63;6248830;23;20099;-79
2022/06/15 08:20:35;;;;;;;11.45;6.75;;;;;;;28.99;34.33;101031.00;6250608;23;20020;-80
2022/06/15 08:23:05;;;;;;;12.98;6.93;;;;;;;28.26;34.98;101028.44;6249373;23;20074;-78
2022/06/15 08:25:35;;;;;;;12.25;7.07;;;;;;;28.24;35.16;101035.13;6245201;23;20035;-79
2022/06/15 08:28:03;;;;;;;12.80;6.55;;;;;;;29.02;34.61;101030.47;6248554;23;20333;-79
2022/06/15 08:30:31;;;;;;;8.90;5.97;;;;;;;28.37;35.07;101035.44;6246666;23;20536;-78
2022/06/15 08:32:58;;;;;;;15.02;6.25;;;;;;;28.96;34.01;101037.75;6250271;23;20050;-80
2022/06/15 08:35:25;;;;;;;12.02;6.10;;;;;;;28.83;34.20;101034.78;6246029;23;20024;-79
2022/06/15 08:37:52;;;;;;;10.70;6.63;;;;;;;27.43;36.07;101032.75;6243963;23;20024;-77
2022/06/15 08:40:19;;;;;;;10.68;6.45;;;;;;;27.54;36.45;101041.69;6244880;23;20024;-79
2022/06/15 08:42:56;;;;;;;10.50;5.72;;;;;;;27.91;35.82;101030.91;6246309;23;20089;-79
2022/06/15 08:45:30;;;;;;;10.70;5.85;;;;;;;29.06;34.00;101031.56;6250770;23;20016;-79
2022/06/15 08:48:12;;;;;;;9.40;5.97;;;;;;;28.67;32.78;101040.09;6246724;23;20457;-78
2022/06/15 08:50:44;;;;;;;;;;;;;;;28.51;34.09;101038.44;6247016;23;20028;-78
2022/06/15 08:53:15;;;;;;;9.25;5.25;;;;;;;27.49;35.76;101036.28;6248400;23;19950;-79
2022/06/15 08:55:46;;;;;;;7.97;5.25;;;;;;;28.45;33.15;101042.19;6245635;23;20056;-78
2022/06/15 08:58:20;;;;;;;8.35;4.95;;;;;;;28.63;33.35;101038.22;6246953;23;20020;-79
2022/06/15 09:00:48;;;;;;;7.40;5.00;;;;;;;29.26;32.16;101036.94;6246210;23;20024;-79
2022/06/15 09:03:24;;;;;;;7.43;4.97;;;;;;;29.08;32.99;101024.00;6245825;23;20353;-78
2022/06/15 09:06:00;;;;;;;6.53;4.68;;;;;;;29.10;33.17;101024.56;6246375;23;20123;-78
2022/06/15 09:08:47;;;;;;;11.55;5.95;;;;;;;28.15;32.92;101025.91;6245668;23;20028;-78
2022/06/15 09:11:35;;;;;;;8.23;4.60;;;;;;;28.20;33.52;101028.63;6245468;23;20074;-79
2022/06/15 09:14:15;;;;;;;9.45;5.05;;;;;;;28.64;32.86;101027.19;6247374;23;20035;-78
2022/06/15 09:16:50;;;;;;;10.52;5.07;;;;;;;28.27;33.16;101023.84;6248977;23;20020;-79
2022/06/15 09:19:23;;;;;;;11.27;4.88;;;;;;;29.01;32.76;101015.38;6249397;23;20070;-79
2022/06/15 09:21:56;;;;;;;12.18;4.70;;;;;;;28.03;33.46;101010.81;6248300;23;20028;-79
2022/06/15 09:24:31;;;;;;;10.85;5.07;;;;;;;28.77;32.17;101014.28;6248561;23;20070;-79
2022/06/15 09:27:03;;;;;;;10.57;4.78;;;;;;;28.65;33.08;101020.72;6248509;23;20024;-78
2022/06/15 09:29:35;;;;;;;8.45;4.80;;;;;;;29.26;30.68;101022.66;6249598;23;20107;-79
2022/06/15 09:32:03;;;;;;;;;;;;;;;27.66;31.50;101026.22;6247885;23;20024;-78
2022/06/15 09:34:35;;;;;;;7.18;4.28;;;;;;;27.03;31.98;101022.50;6247269;23;19943;-78
2022/06/15 09:37:05;;;;;;;;;;;;;;;28.07;31.75;101022.66;6247622;23;20024;-78
2022/06/15 09:39:32;;;;;;;8.70;4.57;;;;;;;27.62;31.99;101025.09;6247093;23;19979;-78
2022/06/15 09:42:08;;;;;;;12.57;4.50;;;;;;;28.55;31.18;101025.25;6244887;23;20031;-78
2022/06/15 09:44:45;;;;;;;11.35;4.55;;;;;;;28.56;30.90;101022.31;6244180;23;20640;-77
2022/06/15 09:47:26;;;;;;;10.43;4.30;;;;;;;27.79;32.20;101014.19;6242785;23;20035;-77
2022/06/15 09:50:08;;;;;;;8.07;4.38;;;;;;;27.59;33.25;101012.19;6243869;23;20020;-78
2022/06/15 09:52:44;;;;;;;8.75;4.20;;;;;;;28.14;32.56;101013.53;6243484;23;20024;-78
2022/06/15 09:55:19;;;;;;;6.85;4.20;;;;;;;27.41;32.68;101002.66;6244346;23;20020;-78
2022/06/15 09:57:47;;;;;;;9.10;4.88;;;;;;;28.06;34.24;101012.97;6243798;23;20091;-77
2022/06/15 10:00:15;;;;;;;10.60;4.88;;;;;;;28.04;33.19;101009.72;6244565;23;20020;-78
2022/06/15 10:02:46;;;;;;;10.10;4.60;;;;;;;28.35;31.82;101007.19;6245230;23;20026;-78
2022/06/15 10:05:23;;;;;;;8.60;4.60;;;;;;;28.86;31.18;101002.72;6246321;23;20032;-77
2022/06/15 10:07:53;;;;;;;13.02;4.40;;;;;;;29.07;30.66;100998.16;6244636;23;20027;-77
2022/06/15 10:10:22;;;;;;;10.07;4.05;;;;;;;28.39;31.63;101006.38;6245962;23;20016;-77
2022/06/15 10:12:58;;;;;;;7.53;4.63;;;;;;;27.44;32.58;101010.16;6245250;23;20031;-77
2022/06/15 10:15:36;;;;;;;10.13;4.30;;;;;;;27.24;33.36;101010.03;6246255;23;20051;-79
2022/06/15 10:18:18;;;;;;;8.05;4.57;;;;;;;27.68;33.27;101016.00;6244141;23;20027;-77
2022/06/15 10:21:01;;;;;;;10.02;4.70;;;;;;;27.83;32.57;101005.34;6244640;23;20503;-77
2022/06/15 10:23:50;;;;;;;11.02;6.18;;;;;;;28.13;33.30;101017.31;6241096;23;20029;-85
2022/06/15 10:26:27;;;;;;;8.85;4.53;;;;;;;27.86;32.34;100991.38;6258468;23;20024;-83
2022/06/15 10:28:54;;;;;;;9.07;4.28;;;;;;;28.25;31.88;100999.09;6258865;23;20016;-83
2022/06/15 10:31:30;;;;;;;10.07;4.50;;;;;;;28.11;30.93;100987.16;6260503;23;20020;-84
2022/06/15 10:33:59;;;;;;;6.28;3.78;;;;;;;27.86;30.91;100974.44;6260341;23;20024;-83
2022/06/15 10:36:33;;;;;;;6.85;4.60;;;;;;;28.09;31.19;100988.22;6262802;23;20024;-83
2022/06/15 10:39:04;;;;;;;7.47;4.32;;;;;;;28.23;30.71;100995.84;6256889;23;20034;-84
2022/06/15 10:41:46;;;;;;;8.82;4.22;;;;;;;27.91;30.76;100985.19;6259620;23;20024;-83
2022/06/15 10:44:15;;;;;;;10.68;4.70;;;;;;;28.23;30.67;100983.22;6260192;23;20024;-83
2022/06/15 10:46:54;;;;;;;9.27;4.45;;;;;;;28.40;30.79;100994.53;6258528;23;20024;-83
2022/06/15 10:49:23;;;;;;;8.63;4.47;;;;;;;27.76;31.72;100994.00;6260375;23;20019;-82
2022/06/15 10:51:53;;;;;;;9.20;4.72;;;;;;;27.73;30.56;100970.34;6259678;23;20028;-82
2022/06/15 10:54:32;;;;;;;9.73;4.03;;;;;;;28.14;32.58;100986.63;6258608;23;20028;-83
2022/06/15 11:03:25;;;;;;;8.82;3.92;;;;;;;28.63;30.54;100969.00;6256303;23;20079;-83
2022/06/15 11:05:54;;;;;;;10.48;4.20;;;;;;;28.56;29.76;100965.78;6248656;23;20047;-83
2022/06/15 11:08:26;;;;;;;5.90;4.10;;;;;;;28.58;29.37;100960.94;6252464;23;20020;-81
2022/06/15 11:11:14;;;;;;;7.63;4.10;;;;;;;28.88;29.07;100965.53;6252954;23;20023;-81
2022/06/15 11:13:44;;;;;;;6.38;3.95;;;;;;;28.39;29.16;100957.13;6251365;23;20031;-80
2022/06/15 11:22:17;;;;;;;7.28;4.00;;;;;;;28.86;27.77;100956.91;6233299;23;20039;-81
2022/06/15 11:24:53;;;;;;;6.78;4.05;;;;;;;28.41;28.51;100955.78;6249019;23;20024;-82
2022/06/15 11:27:26;;;;;;;9.48;4.03;;;;;;;28.22;29.58;100930.47;6257855;23;20020;-82
2022/06/15 11:30:21;;;;;;;6.32;4.05;;;;;;;28.38;29.50;100923.19;6255521;23;20072;-82
2022/06/15 11:35:43;;;;;;;5.47;4.07;;;;;;;28.62;27.85;100927.00;6254620;23;20035;-82
2022/06/15 11:38:19;;;;;;;4.45;3.80;;;;;;;28.36;28.29;100930.75;6256081;23;20024;-82
2022/06/15 11:41:08;;;;;;;6.53;3.83;;;;;;;28.55;28.74;100918.38;6255798;23;20027;-82
2022/06/15 11:43:38;;;;;;;6.65;3.78;;;;;;;28.87;28.67;100934.28;6253841;23;20023;-82
2022/06/15 11:46:27;;;;;;;8.57;4.20;;;;;;;28.89;27.99;100918.66;6253747;23;20024;-82
2022/06/15 11:49:05;;;;;;;10.45;3.88;;;;;;;29.31;28.02;100933.69;6254397;23;20452;-82
2022/06/15 11:51:42;;;;;;;8.65;4.55;;;;;;;29.05;27.51;100927.56;6255334;23;20024;-83